This is the latest recevied weather packets stored in our database for station/object WMKP. If no packets are shown the sender has not sent any weather packets the latest 10 day(s).
| Time | Temp. | Humidity | Pressure | Rain* | Wind** | Luminosity | Snow |
|---|---|---|---|---|---|---|---|
| 1777578589 | 25.56° C | 88% | 1009 hPa | - | - | - | - |
| 1777577389 | 25.56° C | 88% | 1009 hPa | - | - | - | - |
| 1777572613 | 26.67° C | 83% | 1009 hPa | - | - | - | - |
| 1777569021 | 27.78° C | 78% | 1010 hPa | - | - | - | - |
| 1777565413 | 27.78° C | 83% | 1010 hPa | - | - | - | - |
| 1777558213 | 27.78° C | 78% | 1009 hPa | - | - | - | - |
| 1777554621 | 28.89° C | 79% | 1008 hPa | - | - | - | - |
| 1777552800 | 30° C | 74% | 1007 hPa | - | - | - | - |
| 1777547413 | 30° C | 74% | 1007 hPa | - | - | - | - |
| 1777545595 | 30° C | 74% | 1006 hPa | - | - | - | - |
| 1777543813 | 30° C | 74% | 1006 hPa | - | - | - | - |
| 1777542588 | 30° C | 74% | 1006 hPa | - | - | - | - |
| 1777541995 | 30° C | 74% | 1006 hPa | - | - | - | - |
| 1777540220 | 30.56° C | 66% | 1006 hPa | - | - | - | - |
| 1777536612 | 31.67° C | 66% | 1006 hPa | - | - | - | - |
| 1777534795 | 31.67° C | 66% | 1007 hPa | - | - | - | - |
| 1777533587 | 31.67° C | 62% | 1007 hPa | - | - | - | - |
| 1777531194 | 31.67° C | 66% | 1008 hPa | - | - | - | - |
| 1777529412 | 31.67° C | 66% | 1008 hPa | - | - | - | - |
| 1777527594 | 30.56° C | 70% | 1009 hPa | - | - | - | - |
| 1777525820 | 30.56° C | 70% | 1009 hPa | - | - | - | - |
| 1777523997 | 30.56° C | 66% | 1009 hPa | - | - | - | - |
| 1777522788 | 30.56° C | 70% | 1010 hPa | - | - | - | - |
| 1777520390 | 30° C | 74% | 1010 hPa | - | - | - | - |
| 1777518612 | 30° C | 74% | 1010 hPa | - | - | - | - |
* Rain since midnight (hover to see other rain measurements)
** Current wind speed in m/s (hover to see current wind gust speed)